Time;durP1;ratioP1;P1;durP2;ratioP2;P2;SDS_P1;SDS_P2;PMS_P1;PMS_P2;Temp;Humidity;BMP_temperature;BMP_pressure;BME280_temperature;BME280_humidity;BME280_pressure;Samples;Min_cycle;Max_cycle;Signal;HPM_P1;HPM_P2
2021/09/22 00:01:25;;;;;;;33.07;17.03;;;9.60;99.90;;;;;;4942558;29;20278;-95
2021/09/22 00:03:50;;;;;;;30.50;17.47;;;9.10;99.90;;;;;;4948462;29;20206;-95
2021/09/22 00:06:16;;;;;;;27.67;16.43;;;9.30;99.90;;;;;;4944468;29;20667;-96
2021/09/22 00:08:42;;;;;;;28.13;16.83;;;9.50;99.90;;;;;;4913820;29;20168;-95
2021/09/22 00:11:08;;;;;;;27.87;17.53;;;9.10;99.90;;;;;;4928351;29;20699;-94
2021/09/22 00:13:33;;;;;;;33.93;19.17;;;9.10;99.90;;;;;;4947865;29;20191;-95
2021/09/22 00:15:59;;;;;;;32.13;16.53;;;9.40;99.90;;;;;;4939216;29;20180;-94
2021/09/22 00:18:25;;;;;;;32.53;18.47;;;9.00;99.90;;;;;;4922045;29;20981;-93
2021/09/22 00:20:50;;;;;;;33.03;19.03;;;9.00;99.90;;;;;;4909691;29;20619;-94
2021/09/22 00:23:16;;;;;;;40.17;20.13;;;9.30;99.90;;;;;;4925256;29;20179;-94
2021/09/22 00:25:42;;;;;;;35.37;20.57;;;9.00;99.90;;;;;;4924875;29;20693;-94
2021/09/22 00:28:08;;;;;;;37.00;20.23;;;9.00;99.90;;;;;;4945041;29;20247;-93
2021/09/22 00:30:34;;;;;;;39.47;20.93;;;9.10;99.90;;;;;;4922704;29;20239;-94
2021/09/22 00:33:00;;;;;;;43.23;20.83;;;8.90;99.90;;;;;;4941692;29;20195;-94
2021/09/22 00:35:26;;;;;;;46.37;21.37;;;8.90;99.90;;;;;;4939422;29;20187;-95
2021/09/22 00:37:53;;;;;;;41.27;21.87;;;9.00;99.90;;;;;;4947469;29;20184;-94
2021/09/22 00:40:19;;;;;;;38.07;21.60;;;9.00;99.90;;;;;;4941909;29;20228;-93
2021/09/22 00:42:45;;;;;;;39.97;21.17;;;9.00;99.90;;;;;;4924553;29;20585;-95
2021/09/22 00:45:13;;;;;;;40.90;21.50;;;9.30;99.90;;;;;;4906722;29;20236;-93
2021/09/22 00:47:40;;;;;;;39.50;20.43;;;8.90;99.90;;;;;;4921799;29;20212;-95
2021/09/22 00:50:07;;;;;;;43.57;21.77;;;8.90;99.90;;;;;;4920599;29;20260;-94
2021/09/22 00:52:40;;;;;;;44.17;22.93;;;9.10;99.90;;;;;;4907000;29;20195;-95
2021/09/22 00:55:08;;;;;;;44.63;22.90;;;8.50;99.90;;;;;;4924944;29;20615;-94
2021/09/22 00:57:53;;;;;;;45.03;23.20;;;8.90;99.90;;;;;;4922076;29;20177;-95
2021/09/22 01:00:21;;;;;;;46.77;23.70;;;7.70;99.90;;;;;;4919731;29;20187;-94
2021/09/22 01:02:47;;;;;;;50.70;23.70;;;8.90;99.90;;;;;;4926373;29;20188;-95
2021/09/22 01:05:21;;;;;;;42.07;22.30;;;9.00;99.90;;;;;;4920182;29;20184;-94
2021/09/22 01:07:48;;;;;;;45.57;24.23;;;8.30;99.90;;;;;;4918964;29;20180;-95
2021/09/22 01:10:15;;;;;;;51.00;24.87;;;8.90;99.90;;;;;;4918228;29;20209;-95
2021/09/22 01:12:41;;;;;;;52.00;24.87;;;8.90;99.90;;;;;;4922038;29;20189;-94
2021/09/22 01:15:08;;;;;;;47.33;25.37;;;8.90;99.90;;;;;;4918643;29;20268;-94
2021/09/22 01:17:33;;;;;;;55.13;26.37;;;8.90;99.90;;;;;;4918763;29;20180;-94
2021/09/22 01:20:07;;;;;;;51.83;25.67;;;8.90;99.90;;;;;;4920497;29;20652;-95
2021/09/22 01:22:33;;;;;;;53.67;26.37;;;8.90;99.90;;;;;;4920798;29;20195;-94
2021/09/22 01:24:59;;;;;;;51.67;26.37;;;9.20;99.90;;;;;;4921932;29;20188;-93
2021/09/22 01:27:26;;;;;;;55.17;26.00;;;8.80;99.90;;;;;;4920822;29;20188;-94
2021/09/22 01:29:52;;;;;;;53.23;25.83;;;8.80;99.90;;;;;;4922298;29;20253;-92
2021/09/22 01:32:19;;;;;;;50.87;25.97;;;8.80;99.90;;;;;;4920640;29;20189;-94
2021/09/22 01:34:45;;;;;;;49.07;24.67;;;8.80;99.90;;;;;;4919209;29;20185;-93
2021/09/22 01:37:11;;;;;;;48.80;26.10;;;8.80;99.90;;;;;;4918275;29;20191;-93
2021/09/22 01:39:42;;;;;;;54.20;24.43;;;8.90;99.90;;;;;;4919145;29;20185;-94
2021/09/22 01:42:08;;;;;;;48.43;25.87;;;8.80;99.90;;;;;;4919183;29;20729;-93
2021/09/22 01:44:35;;;;;;;46.50;23.77;;;8.80;99.90;;;;;;4926717;29;20732;-93
2021/09/22 01:47:01;;;;;;;52.40;25.83;;;8.80;99.90;;;;;;4921160;29;20275;-93
2021/09/22 01:49:27;;;;;;;50.77;26.13;;;8.80;99.90;;;;;;4921109;29;20184;-94
2021/09/22 01:52:02;;;;;;;47.20;24.97;;;8.80;99.90;;;;;;4920808;29;20214;-93
2021/09/22 01:54:29;;;;;;;53.17;26.20;;;8.80;99.90;;;;;;4920397;29;20656;-94
2021/09/22 01:56:55;;;;;;;48.27;24.27;;;8.80;99.90;;;;;;4920362;29;20689;-93
2021/09/22 01:59:21;;;;;;;51.57;25.97;;;8.80;99.90;;;;;;4905809;29;20543;-94
2021/09/22 02:01:46;;;;;;;44.50;23.97;;;8.80;99.90;;;;;;4941639;29;20259;-93
2021/09/22 02:04:12;;;;;;;48.73;24.60;;;8.80;99.90;;;;;;4889693;29;20224;-94
2021/09/22 02:06:38;;;;;;;50.57;24.83;;;8.80;99.90;;;;;;4890764;29;20188;-94
2021/09/22 02:09:04;;;;;;;43.83;23.97;;;8.80;99.90;;;;;;4921153;29;20195;-95
2021/09/22 02:11:30;;;;;;;42.33;23.10;;;8.80;99.90;;;;;;4920597;29;20222;-94
2021/09/22 02:13:55;;;;;;;48.43;24.33;;;8.80;99.90;;;;;;4920472;29;20188;-94
2021/09/22 02:16:21;;;;;;;44.90;23.77;;;8.70;99.90;;;;;;4904851;29;20195;-94
2021/09/22 02:18:47;;;;;;;42.60;22.23;;;8.70;99.90;;;;;;4921292;29;20545;-94
2021/09/22 02:21:13;;;;;;;38.47;21.97;;;8.70;99.90;;;;;;4920715;29;20188;-94
2021/09/22 02:23:40;;;;;;;41.77;23.17;;;8.70;99.90;;;;;;4905931;29;20191;-94
2021/09/22 02:26:06;;;;;;;42.43;22.43;;;8.70;99.90;;;;;;4938032;29;20180;-93
2021/09/22 02:28:32;;;;;;;38.97;21.73;;;8.70;99.90;;;;;;4920154;29;20211;-94
2021/09/22 02:30:58;;;;;;;39.40;20.73;;;8.70;99.90;;;;;;4920176;29;20262;-94
2021/09/22 02:33:25;;;;;;;35.00;21.40;;;8.70;99.90;;;;;;4920932;29;20187;-95
2021/09/22 02:35:50;;;;;;;38.53;21.63;;;8.80;99.90;;;;;;4920225;29;20192;-95
2021/09/22 02:38:16;;;;;;;38.03;21.33;;;8.80;99.90;;;;;;4921787;29;20195;-96
2021/09/22 02:40:42;;;;;;;40.73;21.60;;;8.70;99.90;;;;;;4936302;29;20179;-95
2021/09/22 02:43:08;;;;;;;36.20;19.87;;;8.70;99.90;;;;;;4922520;29;20188;-95
2021/09/22 02:45:33;;;;;;;35.67;19.87;;;8.80;99.90;;;;;;4920703;29;20286;-95
2021/09/22 02:47:59;;;;;;;34.20;19.93;;;8.80;99.90;;;;;;4921805;29;20524;-95
2021/09/22 02:50:25;;;;;;;34.93;18.93;;;8.70;99.90;;;;;;4907541;29;20218;-96
2021/09/22 02:52:51;;;;;;;36.50;19.43;;;8.80;99.90;;;;;;4923202;29;20339;-96
2021/09/22 02:55:17;;;;;;;32.20;19.10;;;8.80;99.90;;;;;;4906949;29;20188;-95
2021/09/22 02:57:43;;;;;;;34.27;18.93;;;8.80;99.90;;;;;;4938021;29;20266;-95
2021/09/22 03:00:10;;;;;;;30.60;18.50;;;8.70;99.90;;;;;;4921205;29;20208;-95
2021/09/22 03:02:39;;;;;;;29.07;17.97;;;8.70;99.90;;;;;;4938171;29;20399;-92
2021/09/22 03:05:06;;;;;;;29.77;16.33;;;8.70;99.90;;;;;;4920865;29;20202;-94
2021/09/22 03:07:32;;;;;;;29.63;17.37;;;8.80;99.90;;;;;;4905924;29;20176;-94
2021/09/22 03:09:57;;;;;;;32.10;17.30;;;8.70;99.90;;;;;;4906976;29;20184;-94
2021/09/22 03:12:23;;;;;;;35.43;16.37;;;8.70;99.90;;;;;;4925588;29;20642;-91
2021/09/22 03:14:49;;;;;;;31.37;16.97;;;8.70;99.90;;;;;;4928758;29;20195;-96
2021/09/22 03:17:14;;;;;;;29.43;16.43;;;8.70;99.90;;;;;;4912708;29;20188;-94
2021/09/22 03:19:40;;;;;;;26.87;16.13;;;8.70;99.90;;;;;;4936988;29;20203;-96
2021/09/22 03:22:06;;;;;;;26.30;16.47;;;8.70;99.90;;;;;;4934658;29;20282;-94
2021/09/22 03:24:32;;;;;;;28.83;15.30;;;8.70;99.90;;;;;;4949374;29;20180;-95
2021/09/22 03:26:58;;;;;;;30.87;15.60;;;8.70;99.90;;;;;;4928803;29;20235;-94
2021/09/22 03:29:24;;;;;;;25.10;15.23;;;8.70;99.90;;;;;;4945854;29;20184;-95
2021/09/22 03:31:49;;;;;;;26.13;14.67;;;8.70;99.90;;;;;;4942061;29;20298;-94
2021/09/22 03:34:16;;;;;;;24.47;14.73;;;8.60;99.90;;;;;;4924481;29;20591;-95
2021/09/22 03:36:41;;;;;;;21.47;13.50;;;8.70;99.90;;;;;;4925704;29;20172;-96
2021/09/22 03:41:46;;;;;;;23.97;14.40;;;8.70;99.90;;;;;;5670457;23;20273;-95
2021/09/22 03:44:14;;;;;;;23.57;13.67;;;8.60;99.90;;;;;;5066852;23;21138;-96
2021/09/22 03:46:40;;;;;;;24.17;13.83;;;8.70;99.90;;;;;;4969724;29;20238;-96
2021/09/22 03:49:09;;;;;;;20.60;13.87;;;8.70;99.90;;;;;;5157003;23;20270;-96
2021/09/22 03:51:35;;;;;;;19.20;12.67;;;8.50;99.90;;;;;;4949485;29;20204;-96
2021/09/22 03:54:02;;;;;;;17.93;12.23;;;8.70;99.90;;;;;;4954601;29;20176;-96
2021/09/22 04:06:59;;;;;;;17.87;11.17;;;8.60;99.90;;;;;;5387179;23;20238;-96
2021/09/22 04:09:26;;;;;;;19.93;11.97;;;9.00;99.90;;;;;;4997421;28;20167;-95
2021/09/22 04:14:27;;;;;;;19.40;11.97;;;8.60;99.90;;;;;;5129343;23;20250;-96
2021/09/22 04:27:15;;;;;;;19.80;11.70;;;8.50;99.90;;;;;;4824527;23;20239;-96
2021/09/22 04:29:42;;;;;;;18.40;11.63;;;8.20;99.90;;;;;;5074373;23;20249;-90
2021/09/22 04:37:28;;;;;;;;;;;;;;;;;;;;;
2021/09/22 04:39:56;;;;;;;21.57;11.03;;;8.50;99.90;;;;;;5290951;23;20267;-96
2021/09/22 04:42:24;;;;;;;18.90;11.27;;;8.70;99.90;;;;;;5001947;23;20248;-95
2021/09/22 04:44:52;;;;;;;19.97;11.70;;;9.10;99.90;;;;;;4945927;29;20650;-95
2021/09/22 04:52:31;;;;;;;17.47;10.70;;;8.40;99.90;;;;;;4979904;28;20206;-96
2021/09/22 04:54:57;;;;;;;18.70;10.80;;;8.80;99.90;;;;;;5060216;23;20263;-96
2021/09/22 04:57:23;;;;;;;16.27;10.57;;;8.40;99.90;;;;;;4951401;29;20199;-96
2021/09/22 04:59:48;;;;;;;15.90;9.67;;;8.30;99.90;;;;;;5131665;23;20298;-89
2021/09/22 05:02:14;;;;;;;15.73;9.93;;;8.30;99.90;;;;;;4996840;23;20319;-93
2021/09/22 05:04:40;;;;;;;16.60;9.90;;;8.30;99.90;;;;;;4931555;29;20243;-93
2021/09/22 05:07:06;;;;;;;14.87;9.93;;;6.90;99.90;;;;;;4927032;29;20248;-95
2021/09/22 05:09:32;;;;;;;13.73;9.03;;;8.50;99.90;;;;;;5095383;23;20234;-95
2021/09/22 05:12:01;;;;;;;14.13;9.30;;;6.20;99.90;;;;;;4942405;29;20215;-94
2021/09/22 05:14:27;;;;;;;14.20;9.33;;;7.20;99.90;;;;;;4924847;29;20219;-95
2021/09/22 05:16:53;;;;;;;11.20;8.40;;;8.20;99.90;;;;;;4942392;29;20669;-94
2021/09/22 05:19:19;;;;;;;14.87;8.83;;;7.60;99.90;;;;;;4942612;29;20195;-95
2021/09/22 05:21:47;;;;;;;14.47;8.10;;;8.20;99.90;;;;;;4917205;29;20183;-95
2021/09/22 05:24:15;;;;;;;12.47;8.93;;;8.20;99.90;;;;;;4944915;29;20186;-96
2021/09/22 05:26:41;;;;;;;16.13;8.50;;;8.10;99.90;;;;;;4933249;29;20219;-96
2021/09/22 05:29:07;;;;;;;12.27;8.10;;;8.10;99.90;;;;;;4969801;23;20246;-93
2021/09/22 05:31:35;;;;;;;12.63;8.33;;;8.10;99.90;;;;;;5101618;23;20207;-91
2021/09/22 05:34:01;;;;;;;13.83;8.30;;;8.00;99.90;;;;;;4959115;29;20206;-93
2021/09/22 05:36:27;;;;;;;16.77;9.33;;;8.00;99.90;;;;;;4962753;28;20179;-93
2021/09/22 05:38:53;;;;;;;10.97;7.60;;;8.00;99.90;;;;;;4956465;29;20215;-94
2021/09/22 05:43:56;;;;;;;17.60;8.47;;;8.00;99.90;;;;;;4984497;28;20201;-92
2021/09/22 05:46:22;;;;;;;15.80;8.63;;;8.20;99.90;;;;;;4966934;29;20268;-94
2021/09/22 05:48:48;;;;;;;12.00;7.77;;;7.90;99.90;;;;;;4971664;28;20179;-93
2021/09/22 05:51:15;;;;;;;11.30;8.07;;;8.00;99.90;;;;;;4974340;28;20704;-96
2021/09/22 05:53:44;;;;;;;12.30;8.60;;;7.90;99.90;;;;;;5298524;23;20250;-94
2021/09/22 05:58:58;;;;;;;14.20;8.30;;;7.80;99.90;;;;;;5220919;23;20449;-91
2021/09/22 06:09:09;;;;;;;11.30;7.90;;;8.00;99.90;;;;;;5132200;23;20252;-94
2021/09/22 06:11:38;;;;;;;11.63;7.03;;;8.00;99.90;;;;;;5022798;23;20254;-96
2021/09/22 06:14:03;;;;;;;12.17;6.93;;;8.50;99.90;;;;;;4998573;23;20829;-96
2021/09/22 06:16:34;;;;;;;11.93;6.33;;;7.50;99.90;;;;;;4956222;29;20180;-96
2021/09/22 06:21:39;;;;;;;12.63;6.53;;;8.00;99.90;;;;;;5088396;23;20244;-91
2021/09/22 06:24:08;;;;;;;11.47;5.83;;;8.20;99.90;;;;;;4977557;23;20232;-89
2021/09/22 06:26:41;;;;;;;8.97;6.50;;;7.80;99.90;;;;;;5256553;23;20256;-93
2021/09/22 06:29:06;;;;;;;8.73;5.47;;;7.70;99.90;;;;;;4919780;29;20184;-94
2021/09/22 06:31:36;;;;;;;9.67;5.60;;;8.20;99.90;;;;;;4919796;29;20215;-94
2021/09/22 06:34:02;;;;;;;9.03;5.73;;;8.10;99.90;;;;;;4920574;29;20185;-93
2021/09/22 06:36:27;;;;;;;8.33;5.50;;;8.20;99.90;;;;;;4910562;29;20239;-96
2021/09/22 06:38:53;;;;;;;8.67;5.87;;;8.20;99.90;;;;;;4924930;29;20674;-95
2021/09/22 06:41:19;;;;;;;8.87;5.43;;;8.20;99.90;;;;;;4927399;29;20661;-95
2021/09/22 06:43:45;;;;;;;9.40;5.90;;;8.20;99.90;;;;;;4926212;29;20176;-95
2021/09/22 06:46:13;;;;;;;6.90;4.97;;;8.40;99.90;;;;;;5245287;23;20248;-94
2021/09/22 06:48:39;;;;;;;7.30;5.40;;;7.70;99.90;;;;;;4947784;29;20238;-96
2021/09/22 06:51:04;;;;;;;7.97;5.47;;;8.30;99.90;;;;;;4921665;29;20224;-96
2021/09/22 06:53:33;;;;;;;7.97;4.90;;;8.30;99.90;;;;;;4938062;29;20180;-96
2021/09/22 06:55:59;;;;;;;7.60;4.60;;;8.30;99.90;;;;;;4931720;29;20248;-95
2021/09/22 06:58:30;;;;;;;8.30;4.23;;;8.40;99.90;;;;;;4934192;29;20183;-95
2021/09/22 07:00:55;;;;;;;8.97;5.27;;;8.20;99.90;;;;;;5589260;23;20247;-94
2021/09/22 07:03:25;;;;;;;10.53;4.53;;;8.50;99.90;;;;;;4944183;29;20211;-94
2021/09/22 07:05:53;;;;;;;5.90;4.07;;;8.50;99.90;;;;;;4943782;29;20179;-93
2021/09/22 07:08:23;;;;;;;8.87;4.13;;;8.50;99.90;;;;;;4940409;29;20200;-94
2021/09/22 07:10:49;;;;;;;5.83;4.23;;;8.80;99.90;;;;;;4937178;29;20212;-87
2021/09/22 07:13:14;;;;;;;8.43;4.90;;;8.50;99.90;;;;;;4940490;29;20198;-95
2021/09/22 07:15:41;;;;;;;5.77;4.10;;;8.60;99.90;;;;;;4941941;29;20191;-95
2021/09/22 07:18:10;;;;;;;6.13;4.10;;;8.60;99.90;;;;;;4939927;29;20160;-95
2021/09/22 07:20:35;;;;;;;9.83;4.30;;;8.70;99.90;;;;;;4939187;29;20199;-93
2021/09/22 07:23:01;;;;;;;5.20;3.93;;;8.70;99.90;;;;;;5065116;23;20326;-92
2021/09/22 07:28:05;;;;;;;6.37;4.00;;;8.80;99.90;;;;;;5031257;23;20235;-93
2021/09/22 07:30:31;;;;;;;10.80;4.43;;;9.20;99.90;;;;;;4968113;23;20252;-94
2021/09/22 07:32:59;;;;;;;6.67;3.70;;;8.90;99.90;;;;;;4913705;29;20659;-89
2021/09/22 07:35:25;;;;;;;7.00;3.87;;;9.00;99.90;;;;;;4897482;29;20258;-93
2021/09/22 07:37:51;;;;;;;7.40;3.80;;;9.00;99.90;;;;;;4895884;29;20200;-89
2021/09/22 07:40:17;;;;;;;5.80;3.60;;;9.10;99.90;;;;;;4923848;29;20200;-95
2021/09/22 07:42:44;;;;;;;7.30;3.70;;;9.20;99.90;;;;;;4894467;29;20193;-95
2021/09/22 07:45:12;;;;;;;3.17;2.83;;;9.20;99.90;;;;;;4893591;29;20535;-94
2021/09/22 07:47:38;;;;;;;4.47;3.10;;;9.20;99.90;;;;;;4918263;29;20187;-94
2021/09/22 07:50:08;;;;;;;4.77;3.00;;;9.20;99.90;;;;;;4909782;29;20185;-94
2021/09/22 07:52:34;;;;;;;5.87;3.50;;;9.20;99.90;;;;;;4918797;29;20192;-89
2021/09/22 07:55:00;;;;;;;4.90;3.57;;;9.20;99.90;;;;;;4895955;29;20192;-95
2021/09/22 07:57:25;;;;;;;6.57;3.93;;;9.30;99.90;;;;;;4880588;29;20341;-95
2021/09/22 07:59:51;;;;;;;12.77;4.10;;;9.40;99.90;;;;;;4877626;29;20240;-91
2021/09/22 08:02:18;;;;;;;9.20;3.73;;;9.50;99.90;;;;;;4897737;29;20193;-95
2021/09/22 08:04:43;;;;;;;5.43;3.67;;;9.60;99.90;;;;;;4910916;29;20268;-95
2021/09/22 08:07:09;;;;;;;4.90;3.07;;;9.60;99.90;;;;;;4867386;29;20200;-94
2021/09/22 08:09:34;;;;;;;5.90;2.97;;;9.60;99.90;;;;;;4874506;29;20638;-93
2021/09/22 08:12:00;;;;;;;6.33;3.17;;;9.60;99.90;;;;;;4893549;29;20216;-88
2021/09/22 08:14:29;;;;;;;5.87;3.70;;;9.60;99.90;;;;;;4899947;29;20189;-93
2021/09/22 08:16:56;;;;;;;8.77;3.80;;;9.70;99.90;;;;;;4875163;29;20257;-94
2021/09/22 08:19:21;;;;;;;6.23;3.30;;;9.70;99.90;;;;;;4911650;29;20182;-95
2021/09/22 08:21:47;;;;;;;5.47;3.57;;;9.80;99.90;;;;;;4879793;29;20242;-93
2021/09/22 08:24:13;;;;;;;6.17;2.93;;;9.80;99.90;;;;;;4874791;29;20200;-95
2021/09/22 08:26:38;;;;;;;4.73;2.77;;;9.90;99.90;;;;;;4873068;29;20217;-95
2021/09/22 08:29:04;;;;;;;6.53;2.30;;;9.90;99.90;;;;;;4903446;29;20249;-95
2021/09/22 08:31:30;;;;;;;3.57;2.63;;;10.00;99.90;;;;;;4913461;29;20220;-95
2021/09/22 08:33:55;;;;;;;4.97;2.70;;;10.10;99.90;;;;;;4915364;29;20228;-96
2021/09/22 08:36:21;;;;;;;6.73;2.73;;;10.20;99.90;;;;;;4899920;29;20211;-94
2021/09/22 08:38:47;;;;;;;5.97;2.50;;;10.30;99.90;;;;;;4900007;29;20189;-94
2021/09/22 08:41:13;;;;;;;6.40;2.20;;;10.20;99.90;;;;;;4899668;29;20332;-95
2021/09/22 08:43:42;;;;;;;7.13;2.60;;;10.20;99.90;;;;;;4895486;29;20184;-95
2021/09/22 08:46:08;;;;;;;5.17;2.33;;;10.20;99.90;;;;;;4911187;29;20187;-93
2021/09/22 08:48:35;;;;;;;4.60;2.60;;;10.20;99.90;;;;;;4885729;29;20264;-94
2021/09/22 08:51:00;;;;;;;8.70;3.17;;;10.20;99.90;;;;;;4894713;29;20243;-95
2021/09/22 08:53:26;;;;;;;8.07;2.80;;;10.30;99.90;;;;;;4909938;29;20799;-96
2021/09/22 08:55:53;;;;;;;3.57;2.10;;;10.30;99.90;;;;;;4910560;29;20658;-94
2021/09/22 08:58:19;;;;;;;6.43;2.33;;;10.30;99.90;;;;;;4891720;29;20185;-93
2021/09/22 09:00:46;;;;;;;3.90;2.20;;;10.20;99.90;;;;;;4910644;29;20237;-93
2021/09/22 09:03:40;;;;;;;4.40;2.50;;;10.30;99.90;;;;;;4901972;29;20205;-96
2021/09/22 09:06:21;;;;;;;6.47;3.33;;;10.20;99.90;;;;;;4883764;29;20554;-93
2021/09/22 09:08:49;;;;;;;5.10;2.20;;;10.30;99.90;;;;;;4913113;29;20240;-95
2021/09/22 09:11:15;;;;;;;3.53;2.67;;;10.30;99.90;;;;;;4917018;29;20200;-96
2021/09/22 09:13:49;;;;;;;5.90;2.53;;;10.40;99.90;;;;;;4897913;29;20174;-95
2021/09/22 09:16:18;;;;;;;6.97;3.00;;;10.30;99.90;;;;;;4911099;29;20188;-96
2021/09/22 09:18:47;;;;;;;6.30;2.70;;;10.30;99.90;;;;;;4886488;29;20193;-93
2021/09/22 09:21:14;;;;;;;5.30;3.20;;;10.30;99.90;;;;;;4871037;29;20174;-94
2021/09/22 09:24:09;;;;;;;5.67;2.57;;;10.30;99.90;;;;;;4904564;29;20651;-96
2021/09/22 09:26:37;;;;;;;5.27;2.90;;;10.40;99.90;;;;;;4884798;29;20277;-96
2021/09/22 09:29:05;;;;;;;5.33;2.57;;;10.50;99.90;;;;;;4884627;29;20237;-91
2021/09/22 09:31:32;;;;;;;4.17;2.63;;;10.40;99.90;;;;;;4882845;29;20719;-94
2021/09/22 09:34:01;;;;;;;4.20;2.57;;;10.50;99.90;;;;;;4881977;29;20186;-94
2021/09/22 09:36:29;;;;;;;6.60;2.47;;;10.50;99.90;;;;;;4904720;29;20211;-94
2021/09/22 09:38:58;;;;;;;5.40;2.97;;;10.50;99.90;;;;;;4922116;29;20210;-94
2021/09/22 09:41:29;;;;;;;3.45;2.67;;;10.50;99.90;;;;;;4918092;29;20192;-91
2021/09/22 09:43:59;;;;;;;5.40;2.57;;;10.80;99.90;;;;;;4921636;29;20175;-96
2021/09/22 09:46:28;;;;;;;6.27;2.60;;;10.90;99.90;;;;;;4924315;29;20433;-95
2021/09/22 09:48:56;;;;;;;3.20;2.30;;;11.00;99.90;;;;;;4907053;29;20192;-96
2021/09/22 09:51:22;;;;;;;2.80;2.37;;;11.00;99.90;;;;;;4980131;23;20233;-94
2021/09/22 09:53:48;;;;;;;3.83;2.47;;;11.30;99.90;;;;;;4901664;29;20204;-96
2021/09/22 09:56:20;;;;;;;3.67;2.28;;;11.00;99.90;;;;;;4896303;29;20189;-96
2021/09/22 09:58:56;;;;;;;2.67;2.10;;;11.30;99.90;;;;;;4909088;29;20185;-96
2021/09/22 10:01:46;;;;;;;7.93;2.60;;;10.70;99.90;;;;;;4908523;29;20639;-96
2021/09/22 10:04:14;;;;;;;2.78;1.80;;;10.90;99.90;;;;;;4910067;29;20197;-95
2021/09/22 10:06:40;;;;;;;3.28;2.55;;;12.50;99.90;;;;;;4915847;29;20181;-96
2021/09/22 10:09:07;;;;;;;3.60;1.80;;;11.20;99.90;;;;;;4912002;29;20200;-96
2021/09/22 10:11:35;;;;;;;4.60;2.10;;;11.10;99.90;;;;;;4913474;29;20215;-94
2021/09/22 10:14:04;;;;;;;5.57;2.10;;;11.00;99.90;;;;;;4919012;29;20219;-95
2021/09/22 10:16:33;;;;;;;3.70;2.50;;;11.40;99.90;;;;;;4928581;29;20196;-96
2021/09/22 10:19:02;;;;;;;4.50;3.03;;;10.90;99.90;;;;;;4932343;29;20180;-95
2021/09/22 10:21:30;;;;;;;3.83;2.43;;;10.70;99.90;;;;;;4931427;29;20183;-96
2021/09/22 10:23:58;;;;;;;3.83;2.80;;;10.60;99.90;;;;;;4926183;29;20195;-96
2021/09/22 10:29:00;;;;;;;2.40;1.93;;;10.60;99.90;;;;;;5195588;23;20456;-89
2021/09/22 10:31:34;;;;;;;6.83;3.00;;;10.20;99.90;;;;;;5139719;23;20344;-93
2021/09/22 10:34:01;;;;;;;3.57;2.10;;;10.40;99.90;;;;;;4934201;29;20176;-95
2021/09/22 10:36:39;;;;;;;5.03;2.50;;;10.60;99.90;;;;;;4915999;29;20208;-96
2021/09/22 10:39:25;;;;;;;4.20;2.63;;;10.10;99.90;;;;;;4930416;29;20192;-96
2021/09/22 10:41:51;;;;;;;4.00;3.17;;;10.50;99.90;;;;;;4912493;29;20191;-94
2021/09/22 10:44:37;;;;;;;4.75;2.67;;;10.60;99.90;;;;;;4892266;29;20185;-93
2021/09/22 10:47:26;;;;;;;3.57;2.63;;;10.70;99.90;;;;;;4911692;29;20562;-96
2021/09/22 10:49:53;;;;;;;3.23;2.20;;;10.90;99.90;;;;;;4925674;29;20207;-96
2021/09/22 10:52:36;;;;;;;2.60;2.20;;;10.30;99.90;;;;;;4920693;29;20627;-92
2021/09/22 10:55:14;;;;;;;2.10;1.90;;;10.90;99.90;;;;;;4920407;29;20196;-95
2021/09/22 10:57:46;;;;;;;4.25;1.65;;;11.00;99.90;;;;;;4994930;23;20293;-93
2021/09/22 11:00:22;;;;;;;9.98;2.15;;;10.90;99.90;;;;;;4950744;29;20191;-91
2021/09/22 11:02:53;;;;;;;7.30;2.27;;;10.90;99.90;;;;;;4928498;29;20203;-94
2021/09/22 11:05:27;;;;;;;2.83;1.97;;;10.90;99.90;;;;;;4923102;29;20238;-93
2021/09/22 11:07:53;;;;;;;8.38;1.92;;;10.90;99.90;;;;;;4931299;29;20214;-93
2021/09/22 11:10:35;;;;;;;2.10;1.90;;;10.90;99.90;;;;;;4943442;29;20215;-93
2021/09/22 11:13:26;;;;;;;2.70;1.98;;;10.80;99.90;;;;;;4950424;29;20176;-93
2021/09/22 11:15:53;;;;;;;3.77;1.90;;;10.80;99.90;;;;;;4935284;29;20203;-96
2021/09/22 11:18:20;;;;;;;7.30;2.20;;;10.70;99.90;;;;;;4946687;29;20261;-92
2021/09/22 11:20:58;;;;;;;3.13;2.13;;;10.70;99.90;;;;;;4937781;29;20188;-93
2021/09/22 11:23:26;;;;;;;3.57;2.00;;;11.90;99.90;;;;;;4938232;29;20647;-94
2021/09/22 11:25:52;;;;;;;6.10;2.57;;;10.60;99.90;;;;;;4938381;29;20187;-96
2021/09/22 11:28:18;;;;;;;3.70;2.00;;;10.60;99.90;;;;;;4890022;29;20590;-93
2021/09/22 11:30:52;;;;;;;3.43;2.17;;;10.50;99.90;;;;;;4938762;29;20434;-92
2021/09/22 11:33:26;;;;;;;4.87;2.70;;;10.50;99.90;;;;;;4925263;29;20168;-92
2021/09/22 11:35:52;;;;;;;3.90;2.53;;;10.60;99.90;;;;;;4925454;29;20191;-93
2021/09/22 11:38:19;;;;;;;7.63;3.00;;;10.60;99.90;;;;;;4954424;29;20179;-92
2021/09/22 11:40:46;;;;;;;5.40;3.17;;;10.80;99.90;;;;;;4945584;29;20184;-94
2021/09/22 11:43:18;;;;;;;8.27;3.37;;;11.00;99.90;;;;;;4955825;29;20172;-94
2021/09/22 11:46:01;;;;;;;7.70;2.87;;;11.10;99.90;;;;;;4945207;29;20183;-92
2021/09/22 11:48:35;;;;;;;3.93;2.27;;;11.30;99.90;;;;;;4940544;29;20260;-90
2021/09/22 11:51:04;;;;;;;5.40;2.53;;;11.40;99.90;;;;;;4928844;29;20240;-93
2021/09/22 11:53:32;;;;;;;4.17;2.50;;;11.50;99.90;;;;;;4922032;29;20176;-93
2021/09/22 11:55:59;;;;;;;6.70;2.22;;;11.70;99.90;;;;;;4940471;29;20179;-93
2021/09/22 11:58:28;;;;;;;3.95;1.92;;;11.80;99.90;;;;;;4926907;29;20247;-96
2021/09/22 12:00:56;;;;;;;4.07;2.13;;;11.90;99.90;;;;;;4942653;29;20192;-94
2021/09/22 12:03:24;;;;;;;2.63;1.73;;;12.00;99.90;;;;;;4923157;29;20195;-93
2021/09/22 12:06:17;;;;;;;4.97;2.03;;;12.00;99.90;;;;;;4939600;29;20215;-92
2021/09/22 12:08:47;;;;;;;1.77;1.67;;;12.00;99.90;;;;;;4939618;29;20229;-92
2021/09/22 12:11:16;;;;;;;4.82;2.25;;;12.00;99.90;;;;;;4939528;29;20728;-93
2021/09/22 12:13:45;;;;;;;1.98;1.75;;;11.70;99.90;;;;;;4922418;29;20180;-93
2021/09/22 12:16:11;;;;;;;2.63;1.63;;;11.50;99.90;;;;;;4939525;29;20231;-94
2021/09/22 12:18:48;;;;;;;3.83;2.00;;;11.40;99.90;;;;;;4924448;29;20184;-96
2021/09/22 12:21:14;;;;;;;2.58;1.73;;;11.30;99.90;;;;;;4942330;29;20168;-95
2021/09/22 12:23:40;;;;;;;3.20;1.73;;;11.20;99.90;;;;;;4926607;29;20188;-96
2021/09/22 12:26:11;;;;;;;2.35;1.95;;;11.10;99.90;;;;;;4929536;29;20191;-96
2021/09/22 12:28:38;;;;;;;3.47;2.17;;;11.00;99.90;;;;;;5119777;23;21297;-94
2021/09/22 12:31:15;;;;;;;2.53;2.17;;;10.90;99.90;;;;;;4908589;29;20226;-93
2021/09/22 12:33:42;;;;;;;3.97;2.30;;;10.90;99.90;;;;;;4922081;29;20653;-91
2021/09/22 12:36:10;;;;;;;3.15;2.20;;;10.70;99.90;;;;;;4921666;29;20211;-94
2021/09/22 12:38:48;;;;;;;3.63;2.15;;;10.70;99.90;;;;;;4938588;29;20188;-91
2021/09/22 12:41:17;;;;;;;3.20;2.20;;;10.70;99.90;;;;;;4939033;29;20183;-95
2021/09/22 12:43:43;;;;;;;14.93;2.77;;;10.70;99.90;;;;;;4939979;29;20184;-91
2021/09/22 12:46:11;;;;;;;6.00;2.00;;;10.60;99.90;;;;;;4921794;29;20184;-92
2021/09/22 12:48:38;;;;;;;3.97;2.87;;;10.60;99.90;;;;;;4938155;29;20219;-91
2021/09/22 12:51:21;;;;;;;3.73;2.70;;;10.60;99.90;;;;;;4939008;29;20211;-93
2021/09/22 12:53:49;;;;;;;4.97;2.33;;;10.60;99.90;;;;;;4939080;29;20184;-94
2021/09/22 12:56:16;;;;;;;4.90;2.20;;;10.60;99.90;;;;;;4927419;29;20629;-95
2021/09/22 12:58:43;;;;;;;7.87;2.83;;;10.60;99.90;;;;;;4908856;29;20211;-93
2021/09/22 13:01:10;;;;;;;4.10;2.13;;;10.60;99.90;;;;;;4905574;29;20184;-91
2021/09/22 13:03:47;;;;;;;4.00;2.77;;;10.60;99.90;;;;;;4937239;29;20222;-92
2021/09/22 13:06:27;;;;;;;2.53;2.17;;;10.60;99.90;;;;;;4920334;29;20207;-91
2021/09/22 13:09:02;;;;;;;7.73;2.67;;;10.60;99.90;;;;;;4936231;29;20176;-91
2021/09/22 13:11:35;;;;;;;4.03;2.87;;;10.70;99.90;;;;;;4937531;29;20211;-94
2021/09/22 13:14:16;;;;;;;5.60;2.40;;;10.70;99.90;;;;;;4921761;29;20208;-95
2021/09/22 13:19:17;;;;;;;6.43;2.33;;;10.90;99.90;;;;;;4936182;29;20223;-94
2021/09/22 13:21:44;;;;;;;4.30;2.50;;;10.90;99.90;;;;;;4939956;29;20688;-96
2021/09/22 13:24:12;;;;;;;4.20;2.43;;;11.00;99.90;;;;;;4907562;29;20287;-94
2021/09/22 13:26:39;;;;;;;4.57;2.47;;;10.90;99.90;;;;;;4939585;29;20187;-95
2021/09/22 13:29:07;;;;;;;2.97;2.22;;;10.90;99.90;;;;;;4940258;29;20228;-93
2021/09/22 13:31:36;;;;;;;4.53;2.10;;;10.90;99.90;;;;;;4920220;29;20246;-92
2021/09/22 13:34:04;;;;;;;5.53;3.27;;;10.90;99.90;;;;;;4938072;29;20187;-92
2021/09/22 13:36:30;;;;;;;3.45;2.65;;;10.90;99.90;;;;;;4936908;29;20672;-89
2021/09/22 13:38:56;;;;;;;3.90;2.47;;;10.90;99.90;;;;;;4937216;29;20192;-93
2021/09/22 13:41:22;;;;;;;3.67;2.00;;;10.90;99.90;;;;;;4937646;29;20243;-94
2021/09/22 13:43:50;;;;;;;3.17;1.83;;;10.90;99.90;;;;;;4937318;29;20590;-93
2021/09/22 13:46:17;;;;;;;3.90;2.40;;;10.90;99.90;;;;;;4921134;29;20207;-90
2021/09/22 13:48:44;;;;;;;2.93;2.40;;;10.90;99.90;;;;;;4904579;29;20180;-94
2021/09/22 13:51:10;;;;;;;3.80;2.03;;;11.00;99.90;;;;;;4918978;29;20248;-90